Terminal Aerodrome Forecast
Issued by NWS

Home | Current Version | Previous Version | Text Only | Print | Product List | Glossary On
Versions: 1 2 3 4 5 6 7 8 9 10 11 12 13 14 15 16
000
FTUS45 KABQ 041740
TAFROW
TAF
KROW 041740Z 0418/0518 15009KT P6SM FEW070
     FM042100 16011KT P6SM SCT080
     FM050300 17008KT P6SM BKN250=

USA.gov is the U.S. government's official web portal to all federal, state and local government web resources and services.